SEA weather

Seattle Tacoma International Airport
Seattle, Washington, United States

Public forecast

Using degrees Fahrenheit for public forecast. Weather courtesy of forecast.io.

METAR (pilot weather report)

Retrieved 2017/03/29 08:53 UTC (16 minutes ago):

KSEA 290853Z 13006KT 7SM -RA OVC038 08/07 A3008

TAF (pilot weather forecast)

Retrieved 2017/03/29 06:45 UTC (2 hours ago):

TAF KSEA 290539Z 2906/3012 15011KT P6SM -RA SCT025 OVC040 FM290900 15011KT P6SM -RA SCT015 OVC030 TEMPO 2911/2915 5SM -RA BR BKN015 OVC030 FM291500 17013G22KT P6SM -RA BKN020 OVC040 FM292000 20013G22KT P6SM -SHRA BKN030 OVC050 FM300000 22012KT P6SM VCSH SCT035 BKN050 BKN200 FM300900 22012KT P6SM VCSH OVC028